METAR Data
IDs: Format: Raw Decoded Include TAF

Data at: 0953 UTC 28 Mar 2020

KSYN 280935Z AUTO 07009KT 10SM BKN042 OVC048 07/06 A2972 RMK AO2 T00720058
KSYN 280916Z AUTO 06009KT 10SM OVC044 07/06 A2973 RMK AO2 T00720060
KSYN 280915Z AUTO 06009KT 10SM OVC044 07/06 A2973 RMK AO2 T00730060
KSYN 280855Z AUTO 07007KT 10SM OVC048 07/06 A2974 RMK AO2 T00720060
KSYN 280836Z AUTO 05007KT 10SM OVC048 07/06 A2974 RMK AO2 T00720060
KSYN 280835Z AUTO 05007KT 10SM OVC048 07/06 A2974 RMK AO2 T00720060
KSYN 280816Z AUTO 06006KT 10SM OVC050 07/06 A2975 RMK AO2 T00730061
KSYN 280815Z AUTO 06006KT 10SM OVC050 07/06 A2975 RMK AO2 T00730061
KSYN 280755Z AUTO 06005KT 10SM OVC050 08/06 A2976 RMK AO2 T00750061
KSYN 280736Z AUTO 07006KT 10SM OVC050 08/06 A2977 RMK AO2 T00750062
KSYN 280735Z AUTO 07006KT 10SM OVC050 08/06 A2977 RMK AO2 T00750061
KSYN 280716Z AUTO 07007KT 10SM OVC050 08/06 A2977 RMK AO2 T00760061
KSYN 280715Z AUTO 07007KT 10SM OVC050 08/06 A2977 RMK AO2 T00760061
KSYN 280656Z AUTO 07009G14KT 10SM OVC055 08/06 A2976 RMK AO2 T00760061
KSYN 280655Z AUTO 07009G14KT 10SM OVC055 08/06 A2976 RMK AO2 T00760061
KSYN 280636Z AUTO 08008KT 10SM -DZ OVC065 08/06 A2977 RMK AO2 T00760062
KSYN 280635Z AUTO 08009KT 10SM -DZ SCT046 OVC065 08/06 A2977 RMK AO2 T00760062
KSYN 280615Z AUTO 09007KT 10SM -RA BKN048 OVC065 08/06 A2978 RMK AO2 T00750062
KSYN 280556Z AUTO 08006KT 10SM -RA BKN048 OVC065 08/06 A2979 RMK AO2 P0001 60002 T00770062 10113 20076 401390006
KSYN 280555Z AUTO 08006KT 10SM -RA BKN048 OVC065 08/06 A2979 RMK AO2 P0001 60002 T00770062 10113 20076 401390006
KSYN 280536Z AUTO 07006KT 10SM -DZ SCT050 BKN065 OVC085 08/06 A2979 RMK AO2 P0001 T00760061
KSYN 280535Z AUTO 07006KT 10SM -DZ SCT050 BKN065 OVC085 08/06 A2979 RMK AO2 P0001 T00760061
KSYN 280515Z AUTO 08006KT 10SM -RA SCT050 OVC070 08/06 A2979 RMK AO2 P0001 T00800061
KSYN 280455Z AUTO 08005KT 10SM -RA SCT048 OVC070 08/06 A2981 RMK AO2 P0001 T00800060
KSYN 280436Z AUTO 08004KT 10SM -RA SCT050 OVC070 08/06 A2981 RMK AO2 P0001 T00840059
KSYN 280435Z AUTO 08004KT 10SM -RA SCT050 OVC070 09/06 A2981 RMK AO2 P0001 T00850059
KSYN 280415Z AUTO 11005KT 10SM DZ SCT041 OVC060 09/06 A2981 RMK AO2 T00900055
KSYN 280355Z AUTO 13005KT 10SM -RA SCT041 OVC060 10/04 A2981 RMK AO2 T00990044
KSYN 280336Z AUTO 11003KT 10SM RA OVC070 09/05 A2979 RMK AO2 T00860047
KSYN 280335Z AUTO 11003KT 10SM RA OVC070 09/05 A2979 RMK AO2 T00860048
KSYN 280315Z AUTO 01006KT 10SM OVC070 09/05 A2978 RMK AO2 T00860050
KSYN 280255Z AUTO 00000KT 10SM OVC070 09/04 A2979 RMK AO2 T00930041
KSYN 280236Z AUTO 00000KT 10SM -DZ OVC070 10/04 A2977 RMK AO2 LTG DSNT S T00950043
KSYN 280235Z AUTO 00000KT 10SM -DZ OVC070 10/04 A2977 RMK AO2 LTG DSNT S T00950043
KSYN 280215Z AUTO 05004KT 10SM OVC070 10/04 A2977 RMK AO2 LTG DSNT S T00950043
KSYN 280155Z AUTO 04003KT 10SM OVC070 10/04 A2977 RMK AO2 T01010037
KSYN 280136Z AUTO 04005KT 10SM OVC070 10/04 A2976 RMK AO2 T00980041
KSYN 280135Z AUTO 05005KT 10SM -RA OVC070 10/04 A2976 RMK AO2 T00980041
KSYN 280116Z AUTO 05006KT 10SM OVC070 10/04 A2976 RMK AO2 T01000038
KSYN 280115Z AUTO 05006KT 10SM OVC070 10/04 A2976 RMK AO2 T01000038
KSYN 280056Z AUTO 05004KT 10SM OVC070 10/04 A2977 RMK AO2 T01030038
KSYN 280055Z AUTO 05004KT 10SM OVC070 10/04 A2977 RMK AO2 T01030038
KSYN 280035Z AUTO 05005KT 10SM OVC070 11/04 A2977 RMK AO2 T01050041
KSYN 280015Z AUTO 06005KT 10SM OVC070 11/04 A2978 RMK AO2 T01100039
KSYN 272355Z AUTO 06005KT 10SM OVC070 12/04 A2978 RMK AO2 T01150041 10139 20111
KSYN 272335Z AUTO 08005KT 10SM BKN070 OVC080 12/04 A2978 RMK AO2 T01190041
KSYN 272315Z AUTO 10005KT 10SM OVC080 12/03 A2979 RMK AO2 T01210031
KSYN 272255Z AUTO 11006KT 10SM OVC080 13/03 A2980 RMK AO2 T01250027
KSYN 272236Z AUTO 08007KT 10SM BKN080 OVC110 13/03 A2979 RMK AO2 T01290032
KSYN 272235Z AUTO 08007KT 10SM BKN080 OVC110 13/03 A2979 RMK AO2 T01280032
KSYN 272215Z AUTO 07007KT 10SM SCT090 BKN110 13/02 A2979 RMK AO2 T01300024
KSYN 272155Z AUTO 08008KT 10SM BKN090 OVC110 13/02 A2980 RMK AO2 T01270021
KSYN 272136Z AUTO 06009KT 10SM BKN090 OVC110 13/02 A2980 RMK AO2 T01300023
KSYN 272135Z AUTO 05008KT 10SM BKN090 OVC110 13/02 A2980 RMK AO2 T01300023
KSYN 272115Z AUTO 06008KT 10SM SCT090 BKN110 14/03 A2980 RMK AO2 T01350031
KSYN 272056Z AUTO 08005KT 10SM BKN090 OVC110 13/03 A2981 RMK AO2 T01340025
KSYN 272055Z AUTO 07005KT 10SM BKN090 OVC110 13/03 A2981 RMK AO2 T01340025
KSYN 272035Z AUTO 09007KT 10SM OVC090 13/03 A2981 RMK AO2 T01310033
KSYN 272016Z AUTO 08007KT 10SM BKN100 BKN120 13/04 A2981 RMK AO2 T01300035
KSYN 272015Z AUTO 08007KT 10SM BKN100 13/03 A2981 RMK AO2 T01300034
KSYN 271955Z AUTO 10007KT 10SM BKN100 13/04 A2983 RMK AO2 T01280035
KSYN 271935Z AUTO 05005KT 10SM BKN100 13/03 A2984 RMK AO2 T01250034
KSYN 271915Z AUTO 07006KT 10SM BKN100 13/04 A2985 RMK AO2 T01260040
KSYN 271855Z AUTO 09006KT 10SM CLR 12/04 A2986 RMK AO2 T01190040
KSYN 271835Z AUTO 08003KT 10SM CLR 12/04 A2986 RMK AO2 T01170039
KSYN 271815Z AUTO 06006KT 10SM CLR 11/04 A2986 RMK AO2 T01130041
KSYN 271755Z AUTO 13006KT 10SM CLR 11/04 A2986 RMK AO2 T01110040 10111 20010
KSYN 271735Z AUTO 08007KT 10SM CLR 10/04 A2986 RMK AO2 T01040039
KSYN 271716Z AUTO 10004KT 10SM CLR 10/04 A2988 RMK AO2 T01020039
KSYN 271715Z AUTO 12003KT 10SM CLR 10/04 A2988 RMK AO2 T01030039
KSYN 271656Z AUTO 09006KT 10SM CLR 10/04 A2988 RMK AO2 T00980040
KSYN 271655Z AUTO 09006KT 10SM CLR 10/04 A2988 RMK AO2 T00980041
KSYN 271636Z AUTO 08005KT 10SM CLR 10/04 A2988 RMK AO2 T00970039
KSYN 271635Z AUTO 08004KT 10SM CLR 10/04 A2988 RMK AO2 T00980040
KSYN 271616Z AUTO 08005KT 10SM SCT016 09/04 A2989 RMK AO2 T00930039
KSYN 271615Z AUTO 07004KT 10SM SCT016 09/04 A2988 RMK AO2 T00930039
KSYN 271555Z AUTO 00000KT 10SM SCT016 08/04 A2989 RMK AO2 T00840041